Washington, DC (20082)

1:57 AM EDT on August 22, 2014 (GMT -0400)
H Street Corridor - NoMa | Change Station
CLOSE
Current Station
Personal Weather Station
Location: Washington, DC
Elevation: 56 ft
Nearby Weather Stations

Elev 56 ft 38.90 °N, 77.00 °W | Updated 10 seconds ago

Mostly Cloudy
Mostly Cloudy
76.1 °F
Feels Like 77 °F
N
0.0
Wind Variable Wind from NW
Gusts 6.0 mph

Today
High -- | Low -- °F
--% Chance of Precip.
Yesterday
High -- | Low -- °F
Precip. -- in
6:27 AM 7:53 PM
Waning Crescent, 10% visible
Pressure 29.99 in
Visibility 10.0 miles
Clouds Few 7000 ft
Mostly Cloudy 14000 ft
Heat Index 77 °F
Dew Point 69 °F
Humidity 78%
Rainfall 0.00 in
Snow Depth Not available.
UV 0 out of 12
Pollen 9.00 out of 12
Air Quality Not available.
Flu Activity Not available.
METAR KDCA 220552Z 31004KT 10SM FEW070 BKN140 25/19 A2999 RMK AO2 SLP153 60001 T02500194 10267 20244 55003

More Conditions Fewer Conditions

Pressure 29.99 in
Visibility 10.0 miles
Clouds Few 7000 ft
Mostly Cloudy 14000 ft
Heat Index 77 °F
Dew Point 69 °F
Humidity 78%
Rainfall 0.00 in
Snow Depth Not available.
UV 0 out of 12
Pollen 9.00 out of 12
Air Quality Not available.
Flu Activity Not available.
METAR KDCA 220552Z 31004KT 10SM FEW070 BKN140 25/19 A2999 RMK AO2 SLP153 60001 T02500194 10267 20244 55003

More Conditions Fewer Conditions

10-Day Weather Forecast

Almanac

Astronomy

Aug. 22, 2014 Rise Set
Actual Time 6:27 AM EDT 7:53 PM EDT
Civil Twilight 6:00 AM EDT 8:21 PM EDT
Nautical Twilight 5:26 AM EDT 8:54 PM EDT
Astronomical Twilight 4:51 AM EDT 9:29 PM EDT
Moon 3:49 AM EDT 5:59 PM EDT
Length of Visible Light 14h 21m
Length of Day
13h 25m
Tomorrow will be 2m 20s shorter.
Waning Crescent, 10% of the Moon is Illuminated
Today
Waning Crescent
Aug 25
New
Sep 2
First Quarter
Sep 8
Full
Sep 15
Last Quarter

Today's Extremes

State Highs State Lows

Community

WunderPhotos

Upload Photos

1,746,131 photos uploaded!

Nearby

Snow Depth

Station Depth Elevation
No new snow has been reported.

Earthquake Activity

City Distance Mag. Time & Date
No recent earthquake activity has been reported nearby.
Minimum magnitude displayed is 2.5.

Coastal Water Temperatures

Place Temperature
Washington, DC 79.0 °F
Baltimore, MD 81.0 °F
Solomons Island, MD 81.0 °F

Nearby Weather Stations